Time,TemperatureF,DewpointF,PressureIn,WindDirection,WindDirectionDegrees,WindSpeedMPH,WindSpeedGustMPH,Humidity,HourlyPrecipIn,Conditions,Clouds,dailyrainin,SoftwareType,DateUTC
2013-11-05 00:08:00,51.6,35.0,30.11,NE,39,0.0,2.0,53,0.00,,,0.00,weatherlink.com 1.10,2013-11-05 08:08:00,
2013-11-05 00:23:00,52.1,35.0,30.11,NNW,348,0.0,1.0,52,0.00,,,0.00,weatherlink.com 1.10,2013-11-05 08:23:00,
2013-11-05 00:38:00,51.7,35.0,30.11,NNW,348,0.0,1.0,53,0.00,,,0.00,weatherlink.com 1.10,2013-11-05 08:38:00,
2013-11-05 00:53:00,51.5,34.0,30.11,East,82,1.0,3.0,52,0.00,,,0.00,weatherlink.com 1.10,2013-11-05 08:53:00,
2013-11-05 01:08:00,52.0,34.0,30.11,East,81,1.0,2.0,51,0.00,,,0.00,weatherlink.com 1.10,2013-11-05 09:08:00,
2013-11-05 01:23:00,51.8,34.0,30.10,ENE,74,0.0,1.0,51,0.00,,,0.00,weatherlink.com 1.10,2013-11-05 09:23:00,
2013-11-05 01:38:00,51.1,34.0,30.11,ENE,75,0.0,2.0,52,0.00,,,0.00,weatherlink.com 1.10,2013-11-05 09:38:00,
2013-11-05 01:53:00,50.5,34.0,30.10,East,80,0.0,3.0,54,0.00,,,0.00,weatherlink.com 1.10,2013-11-05 09:53:00,
2013-11-05 02:08:00,50.1,33.0,30.10,East,80,0.0,2.0,53,0.00,,,0.00,weatherlink.com 1.10,2013-11-05 10:08:00,
2013-11-05 02:23:00,50.1,33.0,30.11,East,80,0.0,1.0,53,0.00,,,0.00,weatherlink.com 1.10,2013-11-05 10:23:00,
2013-11-05 02:38:00,50.7,33.0,30.11,East,86,0.0,4.0,52,0.00,,,0.00,weatherlink.com 1.10,2013-11-05 10:38:00,
2013-11-05 02:53:00,50.6,33.0,30.11,East,84,0.0,1.0,51,0.00,,,0.00,weatherlink.com 1.10,2013-11-05 10:53:00,
2013-11-05 03:08:00,50.5,33.0,30.11,East,84,0.0,1.0,51,0.00,,,0.00,weatherlink.com 1.10,2013-11-05 11:08:00,
2013-11-05 03:23:00,50.3,33.0,30.11,NE,49,0.0,1.0,51,0.00,,,0.00,weatherlink.com 1.10,2013-11-05 11:23:00,
2013-11-05 03:38:00,50.9,33.0,30.11,East,82,0.0,1.0,51,0.00,,,0.00,weatherlink.com 1.10,2013-11-05 11:38:00,
2013-11-05 03:53:00,50.6,33.0,30.11,East,82,0.0,1.0,51,0.00,,,0.00,weatherlink.com 1.10,2013-11-05 11:53:00,
2013-11-05 04:08:00,50.8,33.0,30.12,East,80,0.0,2.0,50,0.00,,,0.00,weatherlink.com 1.10,2013-11-05 12:08:00,
2013-11-05 04:23:00,51.0,32.0,30.12,East,88,1.0,3.0,49,0.00,,,0.00,weatherlink.com 1.10,2013-11-05 12:23:00,
2013-11-05 04:38:00,51.5,32.0,30.13,East,84,0.0,0.0,48,0.00,,,0.00,weatherlink.com 1.10,2013-11-05 12:38:00,
2013-11-05 04:53:00,51.7,32.0,30.12,East,84,0.0,0.0,48,0.00,,,0.00,weatherlink.com 1.10,2013-11-05 12:53:00,
2013-11-05 05:08:00,51.8,32.0,30.13,East,84,0.0,0.0,47,0.00,,,0.00,weatherlink.com 1.10,2013-11-05 13:08:00,
2013-11-05 05:23:00,51.7,32.0,30.14,East,84,0.0,1.0,47,0.00,,,0.00,weatherlink.com 1.10,2013-11-05 13:23:00,
2013-11-05 05:38:00,51.9,32.0,30.14,East,83,0.0,0.0,46,0.00,,,0.00,weatherlink.com 1.10,2013-11-05 13:38:00,
2013-11-05 05:53:00,52.3,32.0,30.14,East,83,0.0,1.0,47,0.00,,,0.00,weatherlink.com 1.10,2013-11-05 13:53:00,
2013-11-05 06:08:00,51.7,32.0,30.14,East,83,0.0,0.0,47,0.00,,,0.00,weatherlink.com 1.10,2013-11-05 14:08:00,
2013-11-05 06:23:00,51.3,31.0,30.15,East,83,0.0,1.0,47,0.00,,,0.00,weatherlink.com 1.10,2013-11-05 14:23:00,
2013-11-05 06:38:00,51.3,32.0,30.15,East,83,0.0,1.0,48,0.00,,,0.00,weatherlink.com 1.10,2013-11-05 14:38:00,
2013-11-05 06:53:00,51.5,32.0,30.15,East,83,0.0,1.0,47,0.00,,,0.00,weatherlink.com 1.10,2013-11-05 14:53:00,
2013-11-05 07:08:00,51.8,32.0,30.16,East,83,0.0,1.0,47,0.00,,,0.00,weatherlink.com 1.10,2013-11-05 15:08:00,
2013-11-05 07:23:00,52.6,32.0,30.16,ENE,72,0.0,2.0,46,0.00,,,0.00,weatherlink.com 1.10,2013-11-05 15:23:00,
2013-11-05 07:38:00,54.2,33.0,30.16,ENE,72,0.0,1.0,44,0.00,,,0.00,weatherlink.com 1.10,2013-11-05 15:38:00,
2013-11-05 07:53:00,56.5,33.0,30.17,ENE,72,0.0,1.0,41,0.00,,,0.00,weatherlink.com 1.10,2013-11-05 15:53:00,
2013-11-05 08:08:00,58.8,33.0,30.17,ENE,71,1.0,1.0,38,0.00,,,0.00,weatherlink.com 1.10,2013-11-05 16:08:00,
2013-11-05 08:23:00,60.4,34.0,30.18,NNW,344,0.0,2.0,37,0.00,,,0.00,weatherlink.com 1.10,2013-11-05 16:23:00,
2013-11-05 08:38:00,61.2,34.0,30.18,East,92,0.0,2.0,36,0.00,,,0.00,weatherlink.com 1.10,2013-11-05 16:38:00,
2013-11-05 08:53:00,61.9,34.0,30.18,East,94,0.0,2.0,35,0.00,,,0.00,weatherlink.com 1.10,2013-11-05 16:53:00,
2013-11-05 09:08:00,62.7,34.0,30.18,ENE,67,0.0,1.0,34,0.00,,,0.00,weatherlink.com 1.10,2013-11-05 17:08:00,
2013-11-05 09:23:00,63.2,34.0,30.18,ENE,76,0.0,2.0,34,0.00,,,0.00,weatherlink.com 1.10,2013-11-05 17:23:00,
2013-11-05 09:38:00,65.2,34.0,30.18,WSW,252,1.0,3.0,31,0.00,,,0.00,weatherlink.com 1.10,2013-11-05 17:38:00,
2013-11-05 09:54:00,67.3,35.0,30.18,NNW,344,0.0,3.0,30,0.00,,,0.00,weatherlink.com 1.10,2013-11-05 17:54:00,
2013-11-05 10:09:00,69.2,35.0,30.18,East,81,0.0,4.0,28,0.00,,,0.00,weatherlink.com 1.10,2013-11-05 18:09:00,
2013-11-05 10:24:00,70.8,36.0,30.18,NE,34,0.0,6.0,28,0.00,,,0.00,weatherlink.com 1.10,2013-11-05 18:24:00,
2013-11-05 10:39:00,71.9,37.0,30.18,NE,53,0.0,3.0,28,0.00,,,0.00,weatherlink.com 1.10,2013-11-05 18:39:00,
2013-11-05 10:54:00,73.1,36.0,30.18,East,87,0.0,3.0,26,0.00,,,0.00,weatherlink.com 1.10,2013-11-05 18:54:00,
2013-11-05 11:09:00,74.7,37.0,30.18,ENE,76,0.0,2.0,25,0.00,,,0.00,weatherlink.com 1.10,2013-11-05 19:09:00,
2013-11-05 11:24:00,75.5,36.0,30.18,NNE,32,1.0,3.0,24,0.00,,,0.00,weatherlink.com 1.10,2013-11-05 19:24:00,
2013-11-05 11:39:00,75.5,36.0,30.17,East,80,2.0,4.0,24,0.00,,,0.00,weatherlink.com 1.10,2013-11-05 19:39:00,
2013-11-05 11:54:00,75.7,37.0,30.16,NE,54,0.0,5.0,25,0.00,,,0.00,weatherlink.com 1.10,2013-11-05 19:54:00,
2013-11-05 12:09:00,76.1,39.0,30.15,NE,46,1.0,4.0,26,0.00,,,0.00,weatherlink.com 1.10,2013-11-05 20:09:00,
2013-11-05 12:24:00,76.2,42.0,30.14,NNW,347,1.0,7.0,29,0.00,,,0.00,weatherlink.com 1.10,2013-11-05 20:24:00,
2013-11-05 12:39:00,76.6,43.0,30.14,ESE,102,1.0,3.0,30,0.00,,,0.00,weatherlink.com 1.10,2013-11-05 20:39:00,
2013-11-05 12:54:00,77.5,43.0,30.14,NE,52,0.0,6.0,29,0.00,,,0.00,weatherlink.com 1.10,2013-11-05 20:54:00,
2013-11-05 13:09:00,77.6,43.0,30.13,ENE,70,2.0,4.0,29,0.00,,,0.00,weatherlink.com 1.10,2013-11-05 21:09:00,
2013-11-05 13:24:00,76.8,39.0,30.13,South,190,4.0,8.0,26,0.00,,,0.00,weatherlink.com 1.10,2013-11-05 21:24:00,
2013-11-05 13:39:00,74.8,40.0,30.13,South,186,4.0,7.0,28,0.00,,,0.00,weatherlink.com 1.10,2013-11-05 21:39:00,
2013-11-05 13:54:00,73.8,39.0,30.12,South,184,5.0,9.0,28,0.00,,,0.00,weatherlink.com 1.10,2013-11-05 21:54:00,
2013-11-05 14:09:00,73.4,38.0,30.13,South,189,6.0,10.0,28,0.00,,,0.00,weatherlink.com 1.10,2013-11-05 22:09:00,
2013-11-05 14:24:00,73.7,39.0,30.13,SSW,192,4.0,8.0,29,0.00,,,0.00,weatherlink.com 1.10,2013-11-05 22:24:00,
2013-11-05 14:39:00,73.4,39.0,30.13,South,177,2.0,8.0,29,0.00,,,0.00,weatherlink.com 1.10,2013-11-05 22:39:00,
2013-11-05 14:54:00,73.1,39.0,30.13,South,177,3.0,7.0,29,0.00,,,0.00,weatherlink.com 1.10,2013-11-05 22:54:00,
2013-11-05 15:09:00,72.4,39.0,30.13,SW,219,2.0,7.0,30,0.00,,,0.00,weatherlink.com 1.10,2013-11-05 23:09:00,
2013-11-05 15:24:00,72.6,40.0,30.12,SSW,199,2.0,6.0,31,0.00,,,0.00,weatherlink.com 1.10,2013-11-05 23:24:00,
2013-11-05 15:39:00,71.5,40.0,30.12,South,173,3.0,7.0,32,0.00,,,0.00,weatherlink.com 1.10,2013-11-05 23:39:00,
2013-11-05 15:54:00,71.4,41.0,30.12,South,173,3.0,6.0,33,0.00,,,0.00,weatherlink.com 1.10,2013-11-05 23:54:00,
2013-11-05 16:09:00,70.4,41.0,30.12,SSW,209,1.0,4.0,34,0.00,,,0.00,weatherlink.com 1.10,2013-11-06 00:09:00,
2013-11-05 16:24:00,69.6,41.0,30.12,SW,235,3.0,3.0,35,0.00,,,0.00,weatherlink.com 1.10,2013-11-06 00:24:00,
2013-11-05 16:39:00,67.6,41.0,30.13,SW,230,1.0,3.0,38,0.00,,,0.00,weatherlink.com 1.10,2013-11-06 00:39:00,
2013-11-05 16:54:00,65.8,41.0,30.13,SW,230,0.0,2.0,41,0.00,,,0.00,weatherlink.com 1.10,2013-11-06 00:54:00,
2013-11-05 17:09:00,64.5,41.0,30.13,SW,230,0.0,2.0,43,0.00,,,0.00,weatherlink.com 1.10,2013-11-06 01:09:00,
2013-11-05 17:24:00,63.9,41.0,30.13,SW,230,0.0,0.0,43,0.00,,,0.00,weatherlink.com 1.10,2013-11-06 01:24:00,
2013-11-05 17:39:00,63.0,41.0,30.13,SW,230,0.0,0.0,44,0.00,,,0.00,weatherlink.com 1.10,2013-11-06 01:39:00,
2013-11-05 17:54:00,61.8,41.0,30.14,SW,230,0.0,0.0,46,0.00,,,0.00,weatherlink.com 1.10,2013-11-06 01:54:00,
2013-11-05 18:09:00,60.9,41.0,30.14,SW,230,0.0,0.0,48,0.00,,,0.00,weatherlink.com 1.10,2013-11-06 02:09:00,
2013-11-05 18:25:00,59.9,41.0,30.15,SW,230,0.0,1.0,50,0.00,,,0.00,weatherlink.com 1.10,2013-11-06 02:25:00,
2013-11-05 18:39:00,59.5,41.0,30.15,SW,230,0.0,0.0,51,0.00,,,0.00,weatherlink.com 1.10,2013-11-06 02:39:00,
2013-11-05 18:55:00,58.7,41.0,30.16,SW,230,0.0,0.0,53,0.00,,,0.00,weatherlink.com 1.10,2013-11-06 02:55:00,
2013-11-05 19:10:00,58.4,42.0,30.16,SW,230,0.0,0.0,54,0.00,,,0.00,weatherlink.com 1.10,2013-11-06 03:10:00,
2013-11-05 19:25:00,59.1,42.0,30.16,WSW,241,0.0,0.0,54,0.00,,,0.00,weatherlink.com 1.10,2013-11-06 03:25:00,
2013-11-05 19:40:00,59.1,43.0,30.17,WSW,241,0.0,1.0,56,0.00,,,0.00,weatherlink.com 1.10,2013-11-06 03:40:00,
2013-11-05 19:55:00,58.6,42.0,30.17,WSW,241,0.0,1.0,54,0.00,,,0.00,weatherlink.com 1.10,2013-11-06 03:55:00,
2013-11-05 20:10:00,58.5,44.0,30.17,WSW,241,0.0,1.0,59,0.00,,,0.00,weatherlink.com 1.10,2013-11-06 04:10:00,
2013-11-05 20:25:00,58.2,44.0,30.18,WSW,241,0.0,0.0,59,0.00,,,0.00,weatherlink.com 1.10,2013-11-06 04:25:00,
2013-11-05 20:40:00,57.9,43.0,30.18,WSW,241,0.0,0.0,59,0.00,,,0.00,weatherlink.com 1.10,2013-11-06 04:40:00,
2013-11-05 20:55:00,57.7,44.0,30.19,WSW,241,0.0,0.0,61,0.00,,,0.00,weatherlink.com 1.10,2013-11-06 04:55:00,
2013-11-05 21:10:00,57.7,45.0,30.20,WSW,241,0.0,0.0,63,0.00,,,0.00,weatherlink.com 1.10,2013-11-06 05:10:00,
2013-11-05 21:25:00,57.6,45.0,30.20,WSW,241,0.0,1.0,64,0.00,,,0.00,weatherlink.com 1.10,2013-11-06 05:25:00,
2013-11-05 21:40:00,58.1,45.0,30.21,WSW,241,0.0,0.0,63,0.00,,,0.00,weatherlink.com 1.10,2013-11-06 05:40:00,
2013-11-05 21:55:00,57.8,46.0,30.20,WSW,241,0.0,0.0,64,0.00,,,0.00,weatherlink.com 1.10,2013-11-06 05:55:00,
2013-11-05 22:10:00,57.2,45.0,30.21,WSW,241,0.0,0.0,65,0.00,,,0.00,weatherlink.com 1.10,2013-11-06 06:10:00,
2013-11-05 22:25:00,58.1,45.0,30.20,WSW,241,0.0,1.0,63,0.00,,,0.00,weatherlink.com 1.10,2013-11-06 06:25:00,
2013-11-05 22:40:00,58.0,45.0,30.20,WSW,241,0.0,0.0,63,0.00,,,0.00,weatherlink.com 1.10,2013-11-06 06:40:00,
2013-11-05 22:55:00,56.4,44.0,30.21,WSW,241,0.0,1.0,64,0.00,,,0.00,weatherlink.com 1.10,2013-11-06 06:55:00,
2013-11-05 23:10:00,55.2,45.0,30.21,WSW,241,0.0,0.0,69,0.00,,,0.00,weatherlink.com 1.10,2013-11-06 07:10:00,
2013-11-05 23:25:00,54.5,45.0,30.20,WSW,241,0.0,0.0,71,0.00,,,0.00,weatherlink.com 1.10,2013-11-06 07:25:00,
2013-11-05 23:40:00,54.5,46.0,30.20,WSW,241,0.0,1.0,73,0.00,,,0.00,weatherlink.com 1.10,2013-11-06 07:40:00,
2013-11-05 23:55:00,54.3,45.0,30.21,WSW,241,0.0,0.0,71,0.00,,,0.00,weatherlink.com 1.10,2013-11-06 07:55:00,